createdAt,value
2022-08-12T00:02:03.304Z,11.00
2022-08-12T00:05:17.151Z,8.80
2022-08-12T00:08:36.824Z,7.80
2022-08-12T00:11:53.190Z,9.80
2022-08-12T00:15:09.404Z,10.00
2022-08-12T00:18:25.029Z,10.00
2022-08-12T00:21:40.982Z,9.00
2022-08-12T00:24:56.220Z,7.80
2022-08-12T00:28:12.569Z,10.80
2022-08-12T00:31:29.707Z,9.00
2022-08-12T00:34:45.410Z,8.60
2022-08-12T00:38:03.522Z,6.20
2022-08-12T00:41:19.661Z,7.40
2022-08-12T00:44:16.952Z,9.40
2022-08-12T00:47:24.816Z,8.80
2022-08-12T00:50:22.580Z,9.00
2022-08-12T00:53:19.566Z,11.40
2022-08-12T00:56:16.703Z,10.20
2022-08-12T00:59:13.809Z,7.60
2022-08-12T01:02:13.698Z,8.60
2022-08-12T01:05:30.607Z,10.60
2022-08-12T01:08:50.760Z,10.60
2022-08-12T01:11:49.550Z,12.60
2022-08-12T01:14:46.974Z,10.80
2022-08-12T01:17:44.517Z,9.80
2022-08-12T01:21:02.946Z,8.00
2022-08-12T01:24:31.252Z,11.20
2022-08-12T01:27:28.774Z,14.80
2022-08-12T01:30:26.357Z,10.80
2022-08-12T01:33:24.316Z,12.00
2022-08-12T01:36:23.098Z,12.20
2022-08-12T01:39:19.665Z,10.00
2022-08-12T01:42:17.048Z,12.00
2022-08-12T01:45:14.155Z,8.60
2022-08-12T01:48:18.051Z,10.20
2022-08-12T01:52:04.502Z,9.40
2022-08-12T01:54:40.150Z,11.80
2022-08-12T01:57:58.895Z,9.40
2022-08-12T02:01:04.048Z,10.80
2022-08-12T02:04:30.488Z,14.20
2022-08-12T02:08:10.522Z,10.80
2022-08-12T02:11:21.408Z,8.20
2022-08-12T02:14:36.804Z,10.00
2022-08-12T02:17:55.018Z,9.00
2022-08-12T02:21:03.979Z,10.80
2022-08-12T02:24:00.809Z,11.60
2022-08-12T02:26:58.354Z,9.00
2022-08-12T02:29:56.123Z,9.80
2022-08-12T02:32:54.127Z,8.80
2022-08-12T02:35:53.882Z,8.00
2022-08-12T02:38:50.620Z,10.80
2022-08-12T02:41:53.308Z,12.40
2022-08-12T02:44:51.849Z,10.00
2022-08-12T02:47:58.469Z,8.00
2022-08-12T02:51:01.912Z,10.80
2022-08-12T02:54:05.026Z,11.20
2022-08-12T02:57:03.357Z,11.00
2022-08-12T03:00:03.952Z,11.40
2022-08-12T03:03:01.020Z,9.80
2022-08-12T03:06:24.174Z,11.20
2022-08-12T03:09:21.841Z,7.80
2022-08-12T03:12:21.954Z,10.20
2022-08-12T03:15:22.440Z,13.00
2022-08-12T03:18:28.489Z,12.00
2022-08-12T03:21:52.817Z,10.60
2022-08-12T03:24:44.616Z,12.80
2022-08-12T03:27:51.596Z,9.00
2022-08-12T03:30:56.514Z,12.80
2022-08-12T03:34:01.279Z,12.80
2022-08-12T03:36:59.855Z,10.80
2022-08-12T03:39:57.160Z,10.80
2022-08-12T03:43:12.428Z,12.60
2022-08-12T03:46:30.348Z,13.20
2022-08-12T03:49:46.615Z,10.60
2022-08-12T03:53:02.310Z,11.00
2022-08-12T03:56:18.522Z,14.60
2022-08-12T03:59:34.295Z,10.80
2022-08-12T04:02:33.649Z,11.40
2022-08-12T04:05:54.278Z,15.60
2022-08-12T04:08:53.988Z,11.40
2022-08-12T04:12:09.764Z,10.20
2022-08-12T04:15:08.239Z,10.80
2022-08-12T04:18:07.612Z,11.60
2022-08-12T04:21:08.924Z,13.80
2022-08-12T04:24:06.092Z,11.00
2022-08-12T04:27:11.291Z,11.60
2022-08-12T04:30:29.338Z,12.00
2022-08-12T04:33:27.014Z,13.60
2022-08-12T04:36:23.956Z,15.00
2022-08-12T04:39:22.138Z,14.60
2022-08-12T04:42:20.199Z,15.40
2022-08-12T04:45:19.324Z,11.00
2022-08-12T04:48:20.085Z,12.80
2022-08-12T04:51:18.327Z,14.20
2022-08-12T04:54:17.261Z,13.60
2022-08-12T04:57:20.076Z,11.40
2022-08-12T05:00:17.260Z,14.60
2022-08-12T05:03:14.234Z,14.20
2022-08-12T05:06:10.958Z,14.00
2022-08-12T05:09:18.231Z,15.20
2022-08-12T05:12:18.156Z,11.20
2022-08-12T05:15:27.660Z,15.60
2022-08-12T05:18:25.789Z,17.00
2022-08-12T05:21:26.721Z,11.00
2022-08-12T05:24:24.108Z,17.40
2022-08-12T05:27:22.683Z,14.60
2022-08-12T05:30:20.523Z,16.80
2022-08-12T05:33:18.071Z,16.40
2022-08-12T05:36:15.927Z,16.60
2022-08-12T05:39:13.260Z,17.00
2022-08-12T05:42:09.912Z,17.60
2022-08-12T05:45:07.396Z,18.80
2022-08-12T05:48:06.452Z,12.60
2022-08-12T05:51:03.904Z,17.40
2022-08-12T05:54:00.763Z,15.80
2022-08-12T05:56:57.991Z,14.00
2022-08-12T05:59:55.204Z,16.80
2022-08-12T06:03:01.208Z,18.00
2022-08-12T06:05:59.020Z,11.20
2022-08-12T06:08:56.359Z,18.20
2022-08-12T06:12:04.088Z,14.60
2022-08-12T06:15:02.599Z,13.80
2022-08-12T06:18:13.565Z,13.60
2022-08-12T06:21:16.218Z,14.00
2022-08-12T06:24:14.093Z,9.80
2022-08-12T06:27:11.656Z,13.80
2022-08-12T06:30:15.927Z,11.60
2022-08-12T06:33:22.503Z,13.00
2022-08-12T06:36:23.278Z,14.40
2022-08-12T06:39:24.085Z,13.20
2022-08-12T06:42:39.531Z,11.80
2022-08-12T06:45:46.782Z,15.00
2022-08-12T06:48:44.015Z,10.80
2022-08-12T06:51:41.135Z,14.60
2022-08-12T06:54:53.572Z,12.40
2022-08-12T06:58:07.357Z,10.60
2022-08-12T07:01:07.369Z,13.00
2022-08-12T07:04:26.363Z,14.00
2022-08-12T07:07:21.348Z,14.40
2022-08-12T07:10:18.103Z,14.80
2022-08-12T07:13:15.349Z,11.80
2022-08-12T07:16:17.445Z,15.40
2022-08-12T07:19:14.254Z,13.00
2022-08-12T07:22:14.185Z,15.40
2022-08-12T07:25:29.563Z,11.60
2022-08-12T07:28:39.736Z,14.20
2022-08-12T07:31:37.660Z,11.60
2022-08-12T07:34:37.433Z,15.20
2022-08-12T07:37:35.148Z,12.60
2022-08-12T07:40:31.895Z,15.00
2022-08-12T07:43:31.071Z,14.00
2022-08-12T07:46:36.686Z,16.00
2022-08-12T07:49:34.146Z,15.20
2022-08-12T07:52:51.661Z,12.60
2022-08-12T07:55:49.320Z,8.40
2022-08-12T07:58:47.202Z,15.20
2022-08-12T08:01:45.061Z,14.20
2022-08-12T08:04:57.475Z,14.40
2022-08-12T08:08:00.813Z,12.40
2022-08-12T08:11:18.095Z,14.00
2022-08-12T08:14:15.369Z,12.40
2022-08-12T08:17:12.328Z,16.60
2022-08-12T08:20:10.557Z,13.80
2022-08-12T08:23:17.175Z,14.80
2022-08-12T08:26:22.425Z,13.80
2022-08-12T08:29:21.479Z,12.40
2022-08-12T08:32:18.200Z,12.00
2022-08-12T08:35:15.197Z,12.60
2022-08-12T08:38:14.039Z,12.80
2022-08-12T08:42:15.683Z,12.20
2022-08-12T08:44:58.084Z,10.00
2022-08-12T08:47:59.630Z,12.80
2022-08-12T08:51:04.693Z,10.60
2022-08-12T08:54:02.369Z,14.25
2022-08-12T08:57:01.415Z,12.80
2022-08-12T09:00:00.253Z,13.20
2022-08-12T09:02:58.748Z,11.60
2022-08-12T09:06:02.118Z,16.20
2022-08-12T09:09:00.549Z,13.50
2022-08-12T09:12:29.919Z,11.00
2022-08-12T09:18:45.576Z,12.20
2022-08-12T09:21:54.676Z,13.40
2022-08-12T09:24:52.857Z,14.50
2022-08-12T09:32:04.382Z,12.75
2022-08-12T09:34:33.540Z,11.75
2022-08-12T09:37:55.124Z,12.80
2022-08-12T09:42:09.723Z,12.80
2022-08-12T09:44:38.906Z,12.40
2022-08-12T09:47:37.596Z,13.50
2022-08-12T09:50:37.777Z,11.75
2022-08-12T09:53:39.989Z,12.00
2022-08-12T09:57:03.097Z,14.50
2022-08-12T10:00:17.452Z,12.25
2022-08-12T10:03:31.967Z,10.75
2022-08-12T10:06:32.468Z,11.00
2022-08-12T10:09:57.387Z,10.00
2022-08-12T10:13:16.755Z,11.00
2022-08-12T10:16:39.127Z,10.50
2022-08-12T10:19:37.838Z,9.75
2022-08-12T10:22:39.881Z,11.75
2022-08-12T10:26:37.520Z,11.50
2022-08-12T10:30:03.822Z,12.25
2022-08-12T10:32:59.591Z,9.50
2022-08-12T10:36:02.080Z,7.50
2022-08-12T10:38:59.474Z,10.00
2022-08-12T10:42:15.022Z,9.25
2022-08-12T10:45:14.390Z,8.00
2022-08-12T10:48:21.804Z,9.00
2022-08-12T10:52:02.558Z,10.50
2022-08-12T10:54:43.397Z,8.00
2022-08-12T10:58:12.879Z,10.00
2022-08-12T11:01:49.575Z,10.75
2022-08-12T11:04:26.120Z,9.25
2022-08-12T11:08:35.972Z,10.75
2022-08-12T11:10:54.041Z,5.75
2022-08-12T11:13:51.635Z,8.25
2022-08-12T11:17:34.242Z,7.00
2022-08-12T11:20:05.764Z,7.00
2022-08-12T11:23:03.934Z,7.25
2022-08-12T11:26:05.455Z,8.75
2022-08-12T11:29:05.929Z,7.00
2022-08-12T11:32:19.543Z,8.50
2022-08-12T11:35:17.327Z,8.25
2022-08-12T11:38:14.429Z,6.75
2022-08-12T11:41:31.261Z,8.25
2022-08-12T11:44:42.808Z,9.75
2022-08-12T11:47:40.605Z,8.00
2022-08-12T11:50:42.107Z,8.00
2022-08-12T11:53:57.708Z,9.25
2022-08-12T11:56:59.265Z,7.25
2022-08-12T12:03:14.314Z,9.50
2022-08-12T12:06:16.943Z,8.00
2022-08-12T12:09:14.417Z,7.75
2022-08-12T12:12:14.900Z,7.25
2022-08-12T12:15:12.534Z,7.75
2022-08-12T12:18:31.066Z,7.75
2022-08-12T12:21:47.192Z,6.50
2022-08-12T12:24:47.423Z,6.50
2022-08-12T12:28:04.697Z,5.75
2022-08-12T12:31:04.183Z,7.00
2022-08-12T12:34:01.063Z,7.25
2022-08-12T12:36:58.376Z,7.75
2022-08-12T12:39:58.673Z,9.25
2022-08-12T12:43:00.547Z,7.75
2022-08-12T12:46:02.602Z,7.25
2022-08-12T12:48:59.350Z,7.25
2022-08-12T12:52:18.332Z,7.75
2022-08-12T12:55:16.319Z,7.75
2022-08-12T12:58:16.452Z,8.25
2022-08-12T13:01:25.291Z,7.75
2022-08-12T13:04:25.578Z,6.00
2022-08-12T13:07:54.673Z,6.25
2022-08-12T13:10:50.191Z,8.25
2022-08-12T13:14:08.045Z,8.00
2022-08-12T13:17:11.401Z,8.50
2022-08-12T13:20:13.260Z,8.00
2022-08-12T13:23:35.868Z,7.75
2022-08-12T13:26:34.924Z,9.50
2022-08-12T13:29:34.494Z,8.00
2022-08-12T13:32:31.901Z,9.75
2022-08-12T13:35:33.275Z,9.50
2022-08-12T13:38:40.835Z,7.00
2022-08-12T13:41:39.289Z,8.25
2022-08-12T13:44:36.274Z,8.50
2022-08-12T13:47:56.393Z,7.75
2022-08-12T13:50:53.336Z,6.00
2022-08-12T13:53:59.022Z,7.00
2022-08-12T13:56:57.761Z,7.50
2022-08-12T13:59:55.046Z,7.25
2022-08-12T14:02:53.842Z,7.75
2022-08-12T14:05:55.704Z,9.00
2022-08-12T14:08:53.322Z,8.50
2022-08-12T14:11:59.638Z,6.25
2022-08-12T14:14:57.881Z,9.25
2022-08-12T14:18:18.427Z,8.00
2022-08-12T14:21:18.309Z,10.00
2022-08-12T14:24:19.864Z,10.00
2022-08-12T14:28:02.529Z,7.50
2022-08-12T14:31:02.681Z,8.50
2022-08-12T14:33:59.725Z,6.00
2022-08-12T14:36:57.696Z,8.50
2022-08-12T14:39:54.816Z,10.00
2022-08-12T14:42:51.429Z,9.75
2022-08-12T14:45:49.518Z,6.25
2022-08-12T14:48:48.896Z,10.00
2022-08-12T14:52:42.600Z,8.20
2022-08-12T14:58:20.963Z,10.40
2022-08-12T15:01:36.932Z,10.20
2022-08-12T15:04:34.474Z,9.80
2022-08-12T15:07:51.258Z,8.40
2022-08-12T15:10:54.031Z,10.00
2022-08-12T15:13:53.522Z,5.25
2022-08-12T15:16:51.549Z,7.00
2022-08-12T15:20:27.950Z,7.00
2022-08-12T15:23:17.640Z,7.00
2022-08-12T15:26:21.169Z,7.00
2022-08-12T15:29:26.365Z,9.75
2022-08-12T15:32:32.093Z,7.50
2022-08-12T15:35:38.116Z,9.75
2022-08-12T15:38:37.387Z,8.40
2022-08-12T15:41:49.341Z,11.00
2022-08-12T15:44:47.686Z,8.75
2022-08-12T15:47:50.096Z,8.00
2022-08-12T15:50:47.691Z,9.50
2022-08-12T15:54:05.659Z,10.50
2022-08-12T15:57:24.454Z,9.00
2022-08-12T16:00:32.809Z,10.00
2022-08-12T16:03:45.417Z,8.25
2022-08-12T16:07:05.599Z,9.25
2022-08-12T16:10:08.426Z,11.50
2022-08-12T16:13:18.141Z,9.75
2022-08-12T16:16:23.881Z,7.00
2022-08-12T16:20:03.175Z,7.50
2022-08-12T16:22:38.601Z,11.50
2022-08-12T16:26:02.643Z,7.50
2022-08-12T16:28:56.092Z,7.00
2022-08-12T16:31:54.360Z,7.00
2022-08-12T16:34:54.835Z,7.25
2022-08-12T16:38:28.111Z,5.25
2022-08-12T16:41:13.463Z,7.00
2022-08-12T16:44:10.680Z,8.25
2022-08-12T16:47:07.890Z,6.50
2022-08-12T16:50:07.714Z,6.75
2022-08-12T16:53:04.862Z,7.50
2022-08-12T16:56:05.454Z,6.75
2022-08-12T16:59:02.826Z,7.25
2022-08-12T17:02:30.081Z,7.50
2022-08-12T17:05:31.002Z,5.50
2022-08-12T17:08:29.012Z,7.50
2022-08-12T17:11:26.866Z,7.75
2022-08-12T17:14:25.460Z,6.00
2022-08-12T17:17:38.917Z,6.00
2022-08-12T17:20:41.545Z,7.00
2022-08-12T17:23:52.774Z,7.67
2022-08-12T17:26:56.251Z,8.25
2022-08-12T17:30:02.297Z,7.25
2022-08-12T17:33:02.999Z,7.50
2022-08-12T17:36:05.617Z,5.75
2022-08-12T17:39:09.339Z,5.00
2022-08-12T17:42:11.069Z,6.75
2022-08-12T17:45:23.968Z,6.00
2022-08-12T17:48:21.868Z,4.50
2022-08-12T17:51:24.126Z,7.00
2022-08-12T17:54:23.200Z,6.50
2022-08-12T17:57:20.545Z,9.25
2022-08-12T18:00:25.147Z,5.00
2022-08-12T18:03:58.134Z,5.25
2022-08-12T18:06:41.404Z,6.75
2022-08-12T18:09:46.775Z,6.00
2022-08-12T18:12:50.814Z,9.00
2022-08-12T18:16:04.159Z,8.00
2022-08-12T18:19:02.745Z,7.00
2022-08-12T18:22:03.116Z,5.50
2022-08-12T18:25:04.136Z,6.00
2022-08-12T18:28:16.933Z,6.25
2022-08-12T18:31:18.265Z,5.00
2022-08-12T18:34:17.798Z,5.00
2022-08-12T18:37:41.038Z,5.25
2022-08-12T18:40:58.435Z,5.00
2022-08-12T18:44:11.477Z,7.00
2022-08-12T18:47:10.454Z,4.75
2022-08-12T18:50:12.693Z,6.50
2022-08-12T18:54:04.902Z,6.50
2022-08-12T18:56:33.283Z,7.50
2022-08-12T19:00:00.286Z,8.25
2022-08-12T19:02:50.350Z,8.00
2022-08-12T19:05:54.568Z,8.50
2022-08-12T19:08:51.800Z,7.00
2022-08-12T19:12:07.936Z,6.75
2022-08-12T19:15:08.328Z,6.50
2022-08-12T19:18:11.071Z,6.00
2022-08-12T19:21:16.108Z,6.75
2022-08-12T19:24:32.743Z,5.75
2022-08-12T19:27:32.410Z,7.50
2022-08-12T19:30:53.714Z,5.00
2022-08-12T19:34:25.388Z,7.50
2022-08-12T19:37:09.702Z,6.50
2022-08-12T19:40:09.791Z,8.25
2022-08-12T19:43:19.985Z,6.50
2022-08-12T19:46:18.096Z,9.00
2022-08-12T19:49:17.637Z,9.50
2022-08-12T19:52:21.044Z,7.75
2022-08-12T19:55:21.552Z,6.00
2022-08-12T19:58:18.637Z,6.00
2022-08-12T20:01:17.274Z,7.75
2022-08-12T20:04:14.574Z,6.75
2022-08-12T20:07:22.970Z,7.25
2022-08-12T20:10:22.144Z,6.50
2022-08-12T20:13:26.704Z,8.25
2022-08-12T20:16:51.102Z,6.75
2022-08-12T20:20:02.739Z,7.75
2022-08-12T20:23:00.798Z,8.00
2022-08-12T20:26:08.770Z,9.00
2022-08-12T20:29:08.763Z,6.75
2022-08-12T20:32:06.643Z,9.75
2022-08-12T20:35:10.291Z,7.00
2022-08-12T20:38:26.671Z,7.75
2022-08-12T20:41:25.289Z,6.50
2022-08-12T20:44:22.684Z,8.00
2022-08-12T20:47:20.749Z,9.75
2022-08-12T20:50:18.327Z,9.00
2022-08-12T20:53:18.925Z,8.50
2022-08-12T20:56:34.995Z,8.00
2022-08-12T20:59:32.182Z,8.00
2022-08-12T21:02:32.464Z,9.50
2022-08-12T21:06:12.032Z,9.00
2022-08-12T21:09:04.804Z,7.75
2022-08-12T21:12:04.042Z,7.25
2022-08-12T21:15:23.408Z,7.25
2022-08-12T21:18:27.373Z,7.40
2022-08-12T21:21:47.110Z,6.50
2022-08-12T21:24:46.847Z,9.40
2022-08-12T21:27:59.353Z,11.20
2022-08-12T21:32:35.096Z,6.60
2022-08-12T21:34:17.923Z,9.00
2022-08-12T21:37:26.881Z,11.00
2022-08-12T21:40:37.641Z,8.20
2022-08-12T21:43:45.244Z,9.00
2022-08-12T21:46:53.688Z,6.00
2022-08-12T21:50:02.567Z,6.60
2022-08-12T21:53:10.238Z,11.80
2022-08-12T21:56:10.842Z,11.80
2022-08-12T21:59:28.200Z,8.60
2022-08-12T22:02:48.608Z,9.00
2022-08-12T22:06:04.577Z,10.40
2022-08-12T22:09:02.059Z,8.60
2022-08-12T22:12:21.044Z,8.00
2022-08-12T22:15:21.682Z,8.20
2022-08-12T22:18:24.456Z,10.80
2022-08-12T22:21:24.650Z,8.60
2022-08-12T22:24:26.210Z,11.00
2022-08-12T22:27:32.160Z,12.40
2022-08-12T22:30:48.821Z,10.00
2022-08-12T22:33:54.222Z,8.60
2022-08-12T22:36:51.935Z,10.40
2022-08-12T22:39:53.893Z,8.40
2022-08-12T22:43:15.259Z,9.00
2022-08-12T22:46:31.994Z,8.40
2022-08-12T22:49:37.256Z,8.80
2022-08-12T22:52:48.505Z,9.40
2022-08-12T22:55:59.986Z,10.80
2022-08-12T22:59:04.190Z,10.00
2022-08-12T23:02:02.017Z,10.00
2022-08-12T23:04:59.323Z,11.40
2022-08-12T23:08:00.454Z,11.00
2022-08-12T23:11:05.901Z,13.00
2022-08-12T23:14:04.261Z,13.60
2022-08-12T23:17:02.809Z,13.00
2022-08-12T23:20:05.305Z,17.20
2022-08-12T23:23:09.170Z,14.40
2022-08-12T23:26:07.284Z,15.20
2022-08-12T23:29:25.875Z,15.00
2022-08-12T23:32:35.794Z,18.80
2022-08-12T23:35:45.608Z,15.60
2022-08-12T23:39:01.815Z,13.00
2022-08-12T23:42:17.466Z,5.40
2022-08-12T23:45:20.175Z,16.60
2022-08-12T23:48:31.223Z,15.00
2022-08-12T23:51:32.113Z,15.80
2022-08-12T23:54:33.128Z,17.00
2022-08-12T23:57:51.178Z,10.60
